Time;durP1;ratioP1;P1;durP2;ratioP2;P2;SDS_P1;SDS_P2;PMS_P1;PMS_P2;Temp;Humidity;BMP_temperature;BMP_pressure;BME280_temperature;BME280_humidity;BME280_pressure;Samples;Min_cycle;Max_cycle;Signal;HPM_P1;HPM_P2
2021/07/14 00:02:14;;;;;;;41.33;15.00;;;;;;;24.05;79.04;100801.03;1667002;83;21462;-58
2021/07/14 00:04:41;;;;;;;26.52;13.22;;;;;;;24.00;79.52;100798.19;1669579;83;21048;-58
2021/07/14 00:07:08;;;;;;;26.02;13.78;;;;;;;23.96;79.77;100809.03;1635569;86;21085;-58
2021/07/14 00:09:37;;;;;;;26.57;13.20;;;;;;;23.93;80.40;100806.58;1694999;82;21013;-58
2021/07/14 00:12:08;;;;;;;30.85;13.25;;;;;;;23.89;80.89;100807.38;1699455;82;21446;-58
2021/07/14 00:14:57;;;;;;;27.30;13.90;;;;;;;23.86;81.21;100808.16;1693077;82;21527;-58
2021/07/14 00:22:39;;;;;;;25.45;14.55;;;;;;;23.67;82.91;100812.55;1719739;81;21777;-59
2021/07/14 00:25:08;;;;;;;38.30;14.03;;;;;;;23.61;83.46;100814.48;1721648;81;21351;-58
2021/07/14 00:27:40;;;;;;;28.23;13.93;;;;;;;23.56;83.80;100817.62;1717794;81;21399;-58
2021/07/14 00:30:15;;;;;;;31.93;14.95;;;;;;;23.52;84.13;100819.39;1724513;81;20928;-59
2021/07/14 00:32:44;;;;;;;32.15;14.13;;;;;;;23.47;84.18;100811.61;1720671;81;20930;-62
2021/07/14 00:35:12;;;;;;;28.77;14.83;;;;;;;23.44;84.08;100810.00;1718712;81;21042;-62
2021/07/14 00:37:40;;;;;;;27.40;14.98;;;;;;;23.43;84.29;100811.00;1715429;81;21023;-61
2021/07/14 00:40:09;;;;;;;33.25;14.65;;;;;;;23.42;84.42;100809.28;1721529;81;21040;-62
2021/07/14 00:42:39;;;;;;;24.55;14.53;;;;;;;23.40;84.49;100810.41;1716708;81;21076;-57
2021/07/14 00:45:07;;;;;;;34.48;15.08;;;;;;;23.37;84.88;100812.93;1692123;83;21417;-60
2021/07/14 00:47:34;;;;;;;30.57;14.15;;;;;;;23.33;85.11;100814.21;1729794;81;21848;-57
2021/07/14 00:50:03;;;;;;;29.95;13.72;;;;;;;23.31;85.49;100816.19;1692592;81;21016;-57
2021/07/14 00:52:30;;;;;;;34.60;15.08;;;;;;;23.28;85.73;100816.46;1715829;81;20952;-57
2021/07/14 00:54:57;;;;;;;41.00;14.70;;;;;;;23.26;86.05;100815.73;1727627;81;20900;-57
2021/07/14 00:57:32;;;;;;;28.40;14.78;;;;;;;23.23;86.36;100811.88;1727177;81;20889;-58
2021/07/14 00:59:58;;;;;;;;;;;;;;;23.19;86.87;100816.73;1723783;81;20911;-57
2021/07/14 01:02:27;;;;;;;41.92;16.05;;;;;;;23.16;87.41;100817.89;1718554;81;20414;-58
2021/07/14 01:05:10;;;;;;;34.18;14.83;;;;;;;23.11;87.93;100818.80;1664124;83;20968;-58
2021/07/14 01:07:51;;;;;;;34.95;15.85;;;;;;;23.06;88.56;100819.67;1632913;86;21087;-58
2021/07/14 01:10:37;;;;;;;40.15;17.60;;;;;;;23.00;89.25;100813.39;1719803;81;21334;-57
2021/07/14 01:13:12;;;;;;;36.03;19.02;;;;;;;22.93;89.94;100814.41;1718467;81;22005;-57
2021/07/14 01:15:55;;;;;;;48.15;18.35;;;;;;;22.86;90.59;100819.54;1718431;81;20968;-58
2021/07/14 01:18:59;;;;;;;41.00;17.75;;;;;;;22.83;91.37;100818.96;1717165;81;21282;-61
2021/07/14 01:21:32;;;;;;;29.72;16.87;;;;;;;22.79;91.80;100819.71;1722472;81;21298;-61
2021/07/14 01:24:30;;;;;;;30.15;15.28;;;;;;;22.73;92.11;100818.88;1717100;81;21121;-62
2021/07/14 01:27:15;;;;;;;34.08;15.68;;;;;;;22.70;92.18;100813.69;1719984;81;21853;-63
2021/07/14 01:29:47;;;;;;;29.95;15.78;;;;;;;22.66;91.87;100814.92;1723442;81;21036;-62
2021/07/14 01:32:14;;;;;;;25.15;15.68;;;;;;;22.66;92.15;100821.75;1726455;81;21030;-62
2021/07/14 01:34:49;;;;;;;29.92;15.75;;;;;;;22.65;92.33;100822.75;1721855;81;21019;-61
2021/07/14 01:37:18;;;;;;;;;;;;;;;22.62;92.72;100823.90;1707619;81;21449;-61
2021/07/14 01:39:44;;;;;;;29.85;16.37;;;;;;;22.62;92.84;100825.27;1717614;81;21093;-61
2021/07/14 01:42:12;;;;;;;37.88;16.52;;;;;;;22.58;92.69;100817.82;1653052;83;21163;-61
2021/07/14 01:44:39;;;;;;;33.40;16.70;;;;;;;22.58;92.59;100815.60;1693883;81;20964;-61
2021/07/14 01:47:06;;;;;;;33.20;17.60;;;;;;;22.58;92.55;100816.45;1683669;83;21044;-62
2021/07/14 01:49:35;;;;;;;39.08;17.95;;;;;;;22.56;92.41;100819.81;1713844;81;21115;-62
2021/07/14 01:52:05;;;;;;;37.23;17.40;;;;;;;22.55;92.34;100822.18;1692612;83;21913;-63
2021/07/14 01:54:33;;;;;;;41.58;18.17;;;;;;;22.53;92.34;100815.98;1711516;81;21008;-62
2021/07/14 01:56:59;;;;;;;35.88;17.42;;;;;;;22.52;92.44;100821.56;1715044;81;21127;-62
2021/07/14 01:59:27;;;;;;;27.10;16.25;;;;;;;22.51;92.54;100819.83;1650875;83;21101;-63
2021/07/14 02:01:54;;;;;;;30.92;16.62;;;;;;;22.49;93.06;100824.56;1682429;83;21817;-63
2021/07/14 02:04:32;;;;;;;30.12;15.15;;;;;;;22.46;93.38;100825.67;1682208;83;22055;-62
2021/07/14 02:07:26;;;;;;;34.05;15.60;;;;;;;22.42;93.45;100820.08;1725848;81;21145;-62
2021/07/14 02:09:55;;;;;;;31.97;15.32;;;;;;;22.41;93.56;100829.27;1722069;81;21007;-63
2021/07/14 02:12:29;;;;;;;29.48;14.90;;;;;;;22.40;93.71;100827.53;1718924;81;21010;-62
2021/07/14 02:15:08;;;;;;;27.13;15.83;;;;;;;22.40;93.67;100823.44;1707029;81;21104;-60
2021/07/14 02:17:43;;;;;;;30.62;17.23;;;;;;;22.39;93.81;100828.05;1713109;81;21806;-63
2021/07/14 02:20:15;;;;;;;29.32;16.65;;;;;;;22.38;93.64;100829.05;1689086;83;21124;-62
2021/07/14 02:22:43;;;;;;;26.77;16.30;;;;;;;22.37;93.86;100826.43;1694772;81;21005;-62
2021/07/14 02:25:11;;;;;;;30.30;17.67;;;;;;;22.34;93.96;100823.48;1718795;81;21065;-63
2021/07/14 02:27:39;;;;;;;40.67;17.95;;;;;;;22.32;94.30;100822.23;1687957;83;21479;-62
2021/07/14 02:30:15;;;;;;;30.88;18.25;;;;;;;22.31;94.37;100823.70;1699764;82;21624;-63
2021/07/14 02:32:37;;;;;;;42.10;17.82;;;;;;;22.30;94.50;100825.59;1698519;82;21581;-61
2021/07/14 02:35:07;;;;;;;32.10;16.30;;;;;;;22.31;94.64;100819.61;1689092;83;21094;-63
2021/07/14 02:37:54;;;;;;;37.85;15.68;;;;;;;22.32;94.41;100819.98;1701454;82;21516;-61
2021/07/14 02:40:32;;;;;;;25.80;16.62;;;;;;;22.31;94.11;100820.50;1716588;81;21052;-60
2021/07/14 02:43:01;;;;;;;36.63;15.78;;;;;;;22.33;94.09;100819.87;1700732;81;21100;-61
2021/07/14 02:45:28;;;;;;;37.35;15.80;;;;;;;22.36;93.92;100818.75;1686498;83;21486;-61
2021/07/14 02:47:56;;;;;;;38.08;14.80;;;;;;;22.39;93.36;100816.24;1712277;82;21091;-62
2021/07/14 02:50:26;;;;;;;44.73;16.23;;;;;;;22.41;92.92;100819.70;1702701;82;21548;-61
2021/07/14 02:52:56;;;;;;;26.80;15.45;;;;;;;22.46;92.76;100827.04;1705178;82;21536;-62
2021/07/14 02:55:29;;;;;;;28.47;15.18;;;;;;;22.49;92.18;100832.75;1705460;82;21784;-62
2021/07/14 02:57:58;;;;;;;35.48;18.73;;;;;;;22.51;91.58;100826.17;1707749;82;21050;-63
2021/07/14 03:00:25;;;;;;;39.05;17.92;;;;;;;22.56;90.99;100824.43;1704613;82;20953;-61
2021/07/14 03:02:53;;;;;;;27.58;16.02;;;;;;;22.61;90.24;100831.21;1689348;83;21064;-61
2021/07/14 03:05:20;;;;;;;32.88;16.82;;;;;;;22.68;89.76;100833.45;1719502;81;21115;-60
2021/07/14 03:07:47;;;;;;;35.08;16.25;;;;;;;22.74;89.37;100831.03;1728693;81;21142;-61
2021/07/14 03:10:18;;;;;;;29.55;16.37;;;;;;;22.81;88.92;100830.01;1723964;81;21082;-61
2021/07/14 03:12:50;;;;;;;28.15;15.03;;;;;;;22.91;88.56;100834.70;1720013;81;21082;-63
2021/07/14 03:15:17;;;;;;;26.57;15.08;;;;;;;22.98;88.55;100834.53;1718998;81;21617;-62
2021/07/14 03:17:43;;;;;;;35.60;15.18;;;;;;;23.05;88.59;100839.81;1699370;82;21065;-61
2021/07/14 03:20:14;;;;;;;35.08;15.35;;;;;;;23.09;88.68;100842.65;1687083;83;21107;-61
2021/07/14 03:22:47;;;;;;;36.38;16.90;;;;;;;23.11;88.97;100839.31;1697950;83;21502;-61
2021/07/14 03:25:14;;;;;;;24.25;13.83;;;;;;;23.14;89.43;100838.16;1700556;82;21060;-62
2021/07/14 03:27:42;;;;;;;27.75;14.65;;;;;;;23.15;89.21;100840.77;1696560;82;21137;-58
2021/07/14 03:30:10;;;;;;;25.05;14.63;;;;;;;23.16;88.95;100837.03;1685717;83;20920;-58
2021/07/14 03:32:38;;;;;;;24.07;13.78;;;;;;;23.20;88.68;100843.59;1700122;82;21105;-58
2021/07/14 03:35:05;;;;;;;32.33;13.98;;;;;;;23.23;88.39;100847.42;1666688;84;21518;-61
2021/07/14 03:37:32;;;;;;;35.05;13.83;;;;;;;23.27;88.59;100844.33;1698127;81;21668;-57
2021/07/14 03:39:59;;;;;;;26.73;13.10;;;;;;;23.33;88.43;100841.56;1724229;81;21715;-61
2021/07/14 03:42:25;;;;;;;30.43;14.28;;;;;;;23.39;88.13;100842.38;1686266;83;21147;-62
2021/07/14 03:44:52;;;;;;;32.13;13.75;;;;;;;23.46;87.44;100839.45;1703109;82;21133;-61
2021/07/14 03:47:19;;;;;;;30.95;13.58;;;;;;;23.54;86.78;100847.47;1668487;84;21060;-62
2021/07/14 03:49:45;;;;;;;25.15;13.60;;;;;;;23.58;85.91;100839.38;1707519;82;21655;-62
2021/07/14 03:52:14;;;;;;;25.82;13.50;;;;;;;23.64;85.43;100845.67;1701326;82;21466;-58
2021/07/14 03:54:44;;;;;;;28.47;14.03;;;;;;;23.73;84.04;100844.83;1720689;81;21910;-58
2021/07/14 03:57:12;;;;;;;44.73;14.80;;;;;;;23.82;83.31;100849.13;1693622;83;21088;-58
2021/07/14 03:59:38;;;;;;;31.57;18.92;;;;;;;23.91;83.07;100841.44;1695868;82;21064;-59
2021/07/14 04:02:13;;;;;;;36.13;17.30;;;;;;;24.02;82.85;100846.86;1693649;82;21080;-58
2021/07/14 04:04:39;;;;;;;33.05;17.23;;;;;;;24.15;82.35;100850.71;1695011;82;20991;-58
2021/07/14 04:07:13;;;;;;;29.02;16.17;;;;;;;24.26;80.75;100853.84;1694598;83;20973;-58
2021/07/14 04:09:38;;;;;;;26.25;16.73;;;;;;;24.38;79.54;100853.70;1687399;83;21818;-58
2021/07/14 04:12:07;;;;;;;43.40;17.30;;;;;;;24.47;78.85;100852.86;1700254;82;20876;-59
2021/07/14 04:14:34;;;;;;;32.93;15.85;;;;;;;24.58;79.09;100852.71;1687250;83;21467;-58
2021/07/14 04:17:00;;;;;;;31.07;14.33;;;;;;;24.71;78.77;100854.31;1697659;83;21028;-58
2021/07/14 04:19:28;;;;;;;43.95;16.50;;;;;;;24.80;77.12;100860.84;1696927;82;20938;-58
2021/07/14 04:21:54;;;;;;;32.13;15.80;;;;;;;24.85;76.87;100858.00;1701058;82;21456;-62
2021/07/14 04:24:21;;;;;;;38.50;15.72;;;;;;;24.92;76.44;100856.92;1669883;83;21152;-64
2021/07/14 04:26:48;;;;;;;37.85;15.50;;;;;;;24.99;76.47;100865.44;1694557;82;21072;-63
2021/07/14 04:29:15;;;;;;;37.53;14.93;;;;;;;25.09;76.19;100863.57;1695123;82;21569;-59
2021/07/14 04:31:45;;;;;;;39.20;16.55;;;;;;;25.21;75.48;100863.39;1698858;82;20956;-59
2021/07/14 04:34:12;;;;;;;34.50;15.53;;;;;;;25.30;74.90;100862.50;1671546;84;21122;-59
2021/07/14 04:36:41;;;;;;;37.13;16.30;;;;;;;25.38;74.51;100862.64;1666420;83;21470;-59
2021/07/14 04:39:09;;;;;;;28.92;15.75;;;;;;;25.49;74.68;100867.13;1712126;81;21383;-59
2021/07/14 04:41:35;;;;;;;28.87;14.70;;;;;;;25.62;73.93;100865.91;1705306;82;21449;-59
2021/07/14 04:44:05;;;;;;;20.72;14.83;;;;;;;25.70;73.27;100861.92;1695336;83;20930;-58
2021/07/14 04:46:34;;;;;;;23.10;13.85;;;;;;;25.78;72.55;100863.92;1707430;82;21392;-59
2021/07/14 04:49:00;;;;;;;27.48;14.68;;;;;;;25.86;72.35;100865.39;1711964;82;21367;-58
2021/07/14 04:51:27;;;;;;;22.62;16.52;;;;;;;25.95;72.20;100865.84;1713283;81;20905;-59
2021/07/14 04:53:54;;;;;;;31.23;18.48;;;;;;;26.07;71.84;100869.78;1702165;81;20959;-58
2021/07/14 04:56:24;;;;;;;32.35;16.55;;;;;;;26.19;71.80;100875.95;1691445;82;20973;-58
2021/07/14 04:58:52;;;;;;;36.93;16.17;;;;;;;26.29;71.50;100869.88;1672127;83;21113;-58
2021/07/14 05:03:48;;;;;;;25.90;14.65;;;;;;;26.52;70.63;100873.06;1683432;83;21382;-58
2021/07/14 05:06:17;;;;;;;29.05;15.43;;;;;;;26.60;70.01;100875.89;1689749;83;21369;-58
2021/07/14 05:08:44;;;;;;;31.57;15.70;;;;;;;26.64;69.71;100874.20;1688484;83;20977;-58
2021/07/14 05:11:13;;;;;;;36.03;14.83;;;;;;;26.65;69.72;100870.45;1690243;83;21130;-58
2021/07/14 05:13:39;;;;;;;30.90;14.15;;;;;;;26.68;70.14;100881.14;1691603;83;20968;-58
2021/07/14 05:16:08;;;;;;;29.63;13.65;;;;;;;26.75;70.02;100884.98;1688069;83;20931;-58
2021/07/14 05:18:38;;;;;;;27.70;13.32;;;;;;;26.79;69.85;100880.89;1673772;83;20922;-58
2021/07/14 05:21:05;;;;;;;25.60;13.85;;;;;;;26.89;70.35;100873.96;1668292;84;20975;-58
2021/07/14 05:23:37;;;;;;;30.20;14.05;;;;;;;27.03;70.08;100880.78;1659209;84;21745;-59
2021/07/14 05:26:06;;;;;;;23.00;13.68;;;;;;;27.16;69.27;100888.13;1691724;83;20981;-58
2021/07/14 05:28:32;;;;;;;29.57;14.80;;;;;;;27.25;68.92;100882.67;1695547;83;21043;-59
2021/07/14 05:30:58;;;;;;;27.80;13.85;;;;;;;27.37;68.78;100884.16;1673523;84;21069;-59
2021/07/14 05:33:25;;;;;;;30.82;14.45;;;;;;;27.51;67.42;100891.45;1695671;83;21060;-59
2021/07/14 05:35:54;;;;;;;24.18;13.05;;;;;;;27.57;67.32;100893.61;1685264;83;21125;-59
2021/07/14 05:38:21;;;;;;;29.40;13.40;;;;;;;27.66;66.89;100891.24;1690916;83;20920;-59
2021/07/14 05:40:48;;;;;;;33.18;12.98;;;;;;;27.79;65.79;100888.58;1688525;83;20941;-58
2021/07/14 05:43:15;;;;;;;33.40;13.60;;;;;;;27.87;65.26;100894.11;1694145;83;20981;-58
2021/07/14 05:45:45;;;;;;;22.80;13.22;;;;;;;27.97;65.20;100900.38;1686474;83;21138;-57
2021/07/14 05:48:12;;;;;;;29.25;11.95;;;;;;;28.07;64.28;100893.86;1689222;83;21288;-62
2021/07/14 05:50:39;;;;;;;24.50;11.93;;;;;;;28.17;64.01;100898.75;1691532;83;21384;-63
2021/07/14 05:53:06;;;;;;;27.37;12.45;;;;;;;28.31;63.59;100892.61;1686410;83;21033;-62
2021/07/14 05:55:32;;;;;;;24.45;12.13;;;;;;;28.44;63.25;100896.79;1691174;83;21520;-65
2021/07/14 05:57:59;;;;;;;21.90;12.18;;;;;;;28.57;62.66;100895.77;1682003;83;21034;-62
2021/07/14 06:00:26;;;;;;;25.85;12.18;;;;;;;28.75;62.61;100894.77;1687396;83;21092;-63
2021/07/14 06:02:53;;;;;;;26.60;11.25;;;;;;;28.93;61.99;100889.66;1690291;83;20919;-63
2021/07/14 06:05:19;;;;;;;23.90;11.48;;;;;;;29.12;61.22;100893.95;1690651;83;21584;-63
2021/07/14 06:07:46;;;;;;;16.62;10.15;;;;;;;29.22;60.54;100890.52;1693787;83;21373;-63
2021/07/14 06:10:13;;;;;;;17.95;9.33;;;;;;;29.30;59.75;100891.03;1696694;83;20980;-62
2021/07/14 06:12:41;;;;;;;16.97;9.03;;;;;;;29.42;58.93;100895.71;1687600;83;20960;-63
2021/07/14 06:15:10;;;;;;;13.15;8.48;;;;;;;29.53;57.92;100894.48;1690299;83;20941;-59
2021/07/14 06:17:40;;;;;;;18.32;8.43;;;;;;;29.66;57.34;100896.16;1691703;82;20902;-59
2021/07/14 06:20:10;;;;;;;18.55;8.53;;;;;;;29.79;57.07;100890.61;1706272;82;20922;-60
2021/07/14 06:22:38;;;;;;;20.20;8.75;;;;;;;29.95;56.80;100897.44;1704600;82;20941;-58
2021/07/14 06:25:09;;;;;;;16.05;8.43;;;;;;;30.09;56.01;100895.89;1707586;82;20918;-59
2021/07/14 06:27:37;;;;;;;12.03;7.28;;;;;;;30.19;55.90;100899.82;1707603;81;21332;-63
2021/07/14 06:30:07;;;;;;;13.20;8.00;;;;;;;30.32;55.41;100892.83;1708530;82;20916;-61
2021/07/14 06:32:33;;;;;;;18.17;8.38;;;;;;;30.41;54.76;100901.44;1704883;82;21624;-62
2021/07/14 06:35:00;;;;;;;10.00;7.92;;;;;;;30.48;53.59;100901.05;1705256;82;21088;-60
2021/07/14 06:37:26;;;;;;;15.43;8.15;;;;;;;30.52;52.62;100901.02;1704440;82;21647;-60
2021/07/14 06:39:53;;;;;;;21.80;8.03;;;;;;;30.47;51.94;100899.32;1706632;82;21655;-56
2021/07/14 06:42:20;;;;;;;19.37;7.75;;;;;;;30.36;51.99;100913.55;1708323;82;20972;-58
2021/07/14 06:44:50;;;;;;;15.90;7.78;;;;;;;30.31;52.15;100901.66;1706425;82;21784;-58
2021/07/14 06:47:20;;;;;;;16.12;8.05;;;;;;;30.28;50.88;100909.79;1684036;83;21759;-63
2021/07/14 06:49:48;;;;;;;15.78;7.95;;;;;;;30.24;50.97;100907.05;1709620;82;21333;-63
2021/07/14 06:52:14;;;;;;;18.32;8.38;;;;;;;30.20;51.82;100914.49;1703639;82;20953;-59
2021/07/14 06:54:41;;;;;;;25.45;8.83;;;;;;;30.22;51.57;100909.13;1704346;82;20965;-60
2021/07/14 06:57:09;;;;;;;17.40;8.43;;;;;;;30.24;51.26;100908.44;1633489;85;20984;-59
2021/07/14 06:59:36;;;;;;;20.23;7.53;;;;;;;30.26;51.41;100904.09;1644948;85;20918;-59
2021/07/14 07:02:04;;;;;;;24.55;7.53;;;;;;;30.32;51.33;100912.19;1705417;82;21491;-58
2021/07/14 07:04:31;;;;;;;28.98;9.43;;;;;;;30.36;51.09;100913.03;1703459;82;21468;-58
2021/07/14 07:06:58;;;;;;;26.75;8.35;;;;;;;30.41;51.01;100918.03;1708316;82;21391;-57
2021/07/14 07:09:26;;;;;;;27.80;7.80;;;;;;;30.46;51.02;100908.66;1707311;82;20979;-57
2021/07/14 07:11:53;;;;;;;29.57;8.28;;;;;;;30.55;50.16;100920.01;1706723;82;20933;-59
2021/07/14 07:14:22;;;;;;;25.30;7.83;;;;;;;30.62;49.80;100919.30;1707565;82;20954;-58
2021/07/14 07:16:48;;;;;;;32.65;7.65;;;;;;;30.66;49.69;100922.06;1703938;82;21509;-60
2021/07/14 07:19:15;;;;;;;30.97;7.70;;;;;;;30.71;49.32;100926.53;1703656;82;21313;-58
2021/07/14 07:21:43;;;;;;;30.52;8.08;;;;;;;30.71;48.70;100920.99;1705086;82;21331;-58
2021/07/14 07:24:09;;;;;;;21.40;7.80;;;;;;;30.68;49.08;100918.59;1704890;82;20981;-58
2021/07/14 07:26:36;;;;;;;25.80;8.30;;;;;;;30.70;49.63;100912.35;1706172;82;21257;-58
2021/07/14 07:29:05;;;;;;;29.77;9.08;;;;;;;30.76;49.29;100917.69;1671480;83;21018;-57
2021/07/14 07:31:33;;;;;;;27.17;9.78;;;;;;;30.80;49.81;100917.11;1706824;82;20956;-58
2021/07/14 07:34:00;;;;;;;28.25;9.48;;;;;;;30.83;49.76;100918.13;1706345;82;21394;-58
2021/07/14 07:36:26;;;;;;;35.65;10.25;;;;;;;30.80;50.33;100917.11;1703284;82;21028;-59
2021/07/14 07:38:53;;;;;;;22.80;9.95;;;;;;;30.82;50.16;100923.31;1706623;82;21630;-58
2021/07/14 07:41:24;;;;;;;19.37;8.75;;;;;;;30.86;49.97;100930.23;1703522;82;20959;-59
2021/07/14 07:43:52;;;;;;;29.23;9.05;;;;;;;30.90;50.05;100917.41;1704792;82;20874;-57
2021/07/14 07:46:19;;;;;;;20.77;9.68;;;;;;;30.95;50.19;100930.16;1704886;82;20893;-58
2021/07/14 07:48:46;;;;;;;18.57;8.93;;;;;;;31.04;50.33;100925.43;1705033;82;21017;-57
2021/07/14 07:51:13;;;;;;;27.73;9.85;;;;;;;31.09;50.71;100926.60;1701388;82;21057;-58
2021/07/14 07:53:41;;;;;;;21.77;9.58;;;;;;;31.06;50.92;100923.33;1707249;82;20937;-60
2021/07/14 07:56:08;;;;;;;26.37;10.38;;;;;;;31.00;51.79;100928.57;1704087;82;21619;-62
2021/07/14 07:58:38;;;;;;;25.48;10.05;;;;;;;31.03;52.05;100932.02;1704881;82;21383;-62
2021/07/14 08:01:04;;;;;;;15.40;9.40;;;;;;;31.00;51.82;100927.19;1707146;82;21398;-58
2021/07/14 08:03:31;;;;;;;20.72;9.83;;;;;;;30.97;51.96;100926.69;1707381;82;21116;-66
2021/07/14 08:05:58;;;;;;;22.85;9.50;;;;;;;30.98;52.13;100934.82;1705498;82;21845;-64
2021/07/14 08:08:26;;;;;;;24.67;9.30;;;;;;;30.97;52.24;100930.84;1703109;82;20966;-63
2021/07/14 08:10:57;;;;;;;22.07;9.43;;;;;;;30.94;52.45;100929.83;1704788;82;21002;-64
2021/07/14 08:13:27;;;;;;;19.65;10.35;;;;;;;30.98;53.04;100927.90;1703411;82;20927;-64
2021/07/14 08:15:55;;;;;;;14.13;9.40;;;;;;;31.04;53.54;100929.05;1704880;82;21530;-59
2021/07/14 08:18:24;;;;;;;23.55;10.03;;;;;;;31.01;53.59;100931.67;1701561;82;21012;-60
2021/07/14 08:20:53;;;;;;;20.70;10.65;;;;;;;31.03;53.81;100925.94;1706896;82;20931;-61
2021/07/14 08:23:21;;;;;;;21.68;9.28;;;;;;;31.05;54.12;100922.45;1702650;82;21020;-64
2021/07/14 08:25:51;;;;;;;19.32;9.55;;;;;;;31.08;53.91;100929.03;1703762;82;20998;-63
2021/07/14 08:28:18;;;;;;;22.70;9.98;;;;;;;31.11;53.53;100925.89;1703816;82;21146;-66
2021/07/14 08:30:46;;;;;;;33.90;10.60;;;;;;;31.09;54.11;100926.60;1705626;82;21343;-66
2021/07/14 08:33:14;;;;;;;19.52;10.10;;;;;;;31.10;54.48;100921.41;1705952;82;20913;-66
2021/07/14 08:35:41;;;;;;;27.67;9.78;;;;;;;31.14;54.06;100926.02;1703733;82;21541;-60
2021/07/14 08:38:13;;;;;;;34.85;10.85;;;;;;;31.16;53.72;100915.11;1704888;82;21446;-59
2021/07/14 08:40:40;;;;;;;26.12;10.38;;;;;;;31.11;53.98;100918.97;1706049;82;21097;-59
2021/07/14 08:43:09;;;;;;;19.02;10.30;;;;;;;31.06;53.04;100924.20;1703995;82;20952;-59
2021/07/14 08:50:33;;;;;;;21.17;10.28;;;;;;;30.89;53.66;100922.06;1705195;82;21894;-59
2021/07/14 08:53:00;;;;;;;18.42;9.20;;;;;;;30.89;54.17;100928.98;1657778;84;22058;-59
2021/07/14 08:55:26;;;;;;;21.68;8.58;;;;;;;30.89;53.29;100924.83;1706549;82;21036;-61
2021/07/14 08:57:55;;;;;;;15.95;8.18;;;;;;;30.85;52.30;100927.12;1705392;82;21059;-58
2021/07/14 09:00:26;;;;;;;13.88;7.33;;;;;;;30.82;52.13;100924.70;1706702;82;21144;-60
2021/07/14 09:02:55;;;;;;;13.90;8.43;;;;;;;30.82;51.48;100927.47;1705825;82;21010;-60
2021/07/14 09:05:21;;;;;;;14.28;7.40;;;;;;;30.80;51.54;100926.80;1705329;82;21075;-60
2021/07/14 09:07:48;;;;;;;11.22;8.03;;;;;;;30.82;50.45;100926.09;1707153;82;21481;-61
2021/07/14 09:10:18;;;;;;;13.53;7.97;;;;;;;30.84;50.26;100915.72;1704848;82;20956;-62
2021/07/14 09:12:47;;;;;;;12.80;7.33;;;;;;;30.90;50.70;100920.17;1705486;82;21379;-61
2021/07/14 09:15:17;;;;;;;10.60;7.25;;;;;;;30.92;49.20;100922.23;1702383;82;21542;-65
2021/07/14 09:17:50;;;;;;;14.58;7.20;;;;;;;30.85;49.54;100924.36;1704873;82;20937;-62
2021/07/14 09:20:23;;;;;;;15.08;7.12;;;;;;;30.77;49.51;100914.72;1720587;81;21395;-61
2021/07/14 09:23:13;;;;;;;19.95;6.83;;;;;;;30.72;49.13;100917.17;1725613;81;20883;-61
2021/07/14 09:25:55;;;;;;;15.28;7.08;;;;;;;30.70;48.81;100926.19;1684581;82;21477;-59
2021/07/14 09:28:32;;;;;;;15.20;7.20;;;;;;;30.70;48.54;100915.97;1699260;81;20913;-62
2021/07/14 09:31:04;;;;;;;12.90;7.22;;;;;;;30.70;48.84;100925.65;1703638;82;21507;-65
2021/07/14 09:33:36;;;;;;;13.00;6.33;;;;;;;30.68;48.90;100922.75;1722978;81;21312;-66
2021/07/14 09:36:04;;;;;;;14.87;6.90;;;;;;;30.67;47.63;100919.64;1721133;81;21467;-62
2021/07/14 09:38:34;;;;;;;10.28;6.20;;;;;;;30.70;48.26;100922.03;1698616;82;21018;-63
2021/07/14 09:41:06;;;;;;;12.40;6.03;;;;;;;30.71;47.54;100932.91;1702597;82;21471;-63
2021/07/14 09:43:38;;;;;;;14.43;5.80;;;;;;;30.73;47.76;100925.81;1684398;83;21560;-62
2021/07/14 09:46:09;;;;;;;8.93;6.28;;;;;;;30.76;47.12;100926.83;1723495;81;20920;-63
2021/07/14 09:48:54;;;;;;;9.48;5.58;;;;;;;30.80;46.82;100928.72;1702206;82;20961;-63
2021/07/14 09:51:20;;;;;;;7.45;5.87;;;;;;;30.80;46.07;100927.34;1688067;83;20937;-64
2021/07/14 09:53:55;;;;;;;10.35;4.62;;;;;;;30.79;45.41;100927.84;1723581;81;21766;-65
2021/07/14 09:56:32;;;;;;;10.45;5.53;;;;;;;30.80;44.99;100922.64;1726924;81;21046;-64
2021/07/14 09:59:11;;;;;;;14.25;4.72;;;;;;;30.82;44.88;100926.09;1724287;81;21390;-64
2021/07/14 10:01:49;;;;;;;11.73;5.20;;;;;;;30.80;44.86;100917.11;1707832;82;20925;-64
2021/07/14 10:04:30;;;;;;;9.58;5.20;;;;;;;30.80;44.57;100922.64;1724863;81;21683;-64
2021/07/14 10:07:18;;;;;;;11.35;5.22;;;;;;;30.83;45.16;100913.97;1728172;81;21076;-64
2021/07/14 10:09:45;;;;;;;7.75;4.70;;;;;;;30.93;44.69;100912.88;1700454;82;22027;-63
2021/07/14 10:12:33;;;;;;;13.60;4.45;;;;;;;31.03;43.50;100918.17;1699722;82;21045;-63
2021/07/14 10:15:19;;;;;;;11.90;4.75;;;;;;;31.06;43.70;100921.44;1697984;83;21126;-63
2021/07/14 10:17:48;;;;;;;12.98;4.42;;;;;;;31.12;42.96;100912.38;1723271;81;21070;-62
2021/07/14 10:20:29;;;;;;;8.70;4.75;;;;;;;31.15;42.30;100919.44;1709195;81;21382;-62
2021/07/14 10:23:04;;;;;;;9.33;4.58;;;;;;;31.14;42.00;100915.83;1706723;82;22209;-62
2021/07/14 10:25:34;;;;;;;13.62;4.78;;;;;;;31.20;42.06;100913.38;1706110;82;21377;-62
2021/07/14 10:28:05;;;;;;;12.60;4.20;;;;;;;31.19;41.95;100917.16;1711705;82;21891;-62
2021/07/14 10:30:32;;;;;;;11.95;4.53;;;;;;;31.15;41.46;100909.23;1702587;82;20922;-62
2021/07/14 10:33:00;;;;;;;8.83;4.35;;;;;;;31.15;42.74;100917.55;1702140;82;20914;-62
2021/07/14 10:35:31;;;;;;;10.30;4.53;;;;;;;31.20;42.26;100914.77;1700421;82;21478;-62
2021/07/14 10:38:05;;;;;;;9.15;4.20;;;;;;;31.23;41.58;100920.80;1702996;82;20969;-65
2021/07/14 10:40:34;;;;;;;10.13;3.98;;;;;;;31.22;40.92;100905.74;1707167;82;20890;-64
2021/07/14 10:43:02;;;;;;;7.95;3.72;;;;;;;31.24;39.79;100909.19;1706338;82;20907;-63
2021/07/14 10:45:30;;;;;;;13.15;4.00;;;;;;;31.29;38.55;100909.51;1710165;82;21026;-64
2021/07/14 10:47:57;;;;;;;6.45;3.17;;;;;;;31.34;38.98;100911.70;1702214;82;22112;-62
2021/07/14 10:50:26;;;;;;;12.05;4.10;;;;;;;31.35;38.22;100907.36;1696162;82;20969;-63
2021/07/14 10:52:52;;;;;;;5.55;3.52;;;;;;;31.41;38.42;100913.53;1705444;82;20945;-62
2021/07/14 10:55:22;;;;;;;6.78;3.55;;;;;;;31.43;37.95;100907.81;1706244;82;21729;-63
2021/07/14 10:57:50;;;;;;;8.25;3.92;;;;;;;31.43;38.52;100907.27;1706426;82;21376;-62
2021/07/14 11:00:17;;;;;;;8.08;3.80;;;;;;;31.44;38.38;100906.22;1704938;82;22210;-62
2021/07/14 11:02:55;;;;;;;9.13;3.60;;;;;;;31.47;38.44;100913.81;1706110;82;21383;-61
2021/07/14 11:05:47;;;;;;;9.20;3.35;;;;;;;31.49;36.81;100904.79;1704968;82;21045;-60
2021/07/14 11:08:43;;;;;;;5.92;3.77;;;;;;;31.52;37.47;100909.98;1706168;82;21107;-61
2021/07/14 11:11:13;;;;;;;14.45;3.60;;;;;;;31.55;37.17;100906.83;1703688;82;20963;-61
2021/07/14 11:13:43;;;;;;;6.53;3.55;;;;;;;31.54;36.69;100906.49;1704195;82;21124;-61
2021/07/14 11:16:33;;;;;;;7.42;3.50;;;;;;;31.56;37.21;100905.23;1696855;82;20918;-61
2021/07/14 11:19:12;;;;;;;8.40;3.17;;;;;;;31.59;36.63;100896.54;1702642;81;21490;-61
2021/07/14 11:22:02;;;;;;;14.75;4.17;;;;;;;31.64;36.69;100895.14;1717731;81;21370;-61
2021/07/14 11:24:46;;;;;;;8.55;3.60;;;;;;;31.67;36.91;100891.98;1717970;81;21017;-61
2021/07/14 11:27:31;;;;;;;6.62;3.62;;;;;;;31.68;35.87;100889.00;1718492;81;21046;-65
2021/07/14 11:30:10;;;;;;;13.22;3.20;;;;;;;31.70;35.24;100895.21;1715759;81;21569;-62
2021/07/14 11:32:46;;;;;;;18.62;3.80;;;;;;;31.71;35.27;100896.92;1644363;83;21045;-64
2021/07/14 11:35:19;;;;;;;13.20;3.65;;;;;;;31.70;35.29;100886.05;1702921;82;20942;-64
2021/07/14 11:37:56;;;;;;;13.93;3.33;;;;;;;31.71;35.75;100885.84;1703537;82;20957;-66
2021/07/14 11:40:38;;;;;;;10.30;3.37;;;;;;;31.75;35.35;100888.26;1702746;82;21851;-67
2021/07/14 11:43:16;;;;;;;9.40;3.50;;;;;;;31.78;34.75;100890.68;1717788;81;20963;-65